Terminal Aerodrome Forecast
Issued by NWS Pueblo, CO

Home | Current Version | Previous Version | Text Only | Print | Product List | Glossary On
Versions: 1 2 3 4 5 6 7 8 9 10 11 12 13 14 15 16 17 18 19 20 21 22 23 24 25 26 27 28 29 30 31 32 33 34 35 36 37 38 39 40 41 42 43 44 45 46
000
FTUS45 KPUB 281749 CCA
TAFPUB
TAF COR
KPUB 281749Z 2818/2918 11011KT P6SM SCT025 SCT120
      TEMPO 2818/2819 BKN025
     FM282200 12012KT P6SM VCTS SCT060CB BKN120
     FM290400 VRB06KT P6SM BKN100
     FM291000 VRB05KT P6SM SCT030 BKN150=

USA.gov is the U.S. government's official web portal to all federal, state and local government web resources and services.